GLACIER NATIONAL PARK
LOGAN PASS HOURLY WEATHER ROUNDUP
LOGAN_PASS 6/23/2017
CLICK HERE TO VIEW GRAPH
All data is provisional.
Wind sensor is not heated. Riming can occur.
        DATE  TIME Temp F  % RH Watt/m Wind Speed Wind Dir Max Gust Press InHg     BATT
                                                                                         
                     (1HR) (1HR)     AVG      (1HR)    (1HR)      MAX        AVG      AVG

   3/17/2017 14:00      27    59  465.00          5      308       15      30.00    11.05
   3/17/2017 13:00      26    59  591.60          0        0        0      30.03    11.23
   3/17/2017 12:00      24    55  632.50          0        0        0      30.05    10.88
   3/17/2017 11:00      22    44  421.20          0        0        0      30.07    10.92
   3/17/2017 10:00      20    64  304.10          0        0        0      30.07     9.78
   3/17/2017 09:00      20    66  177.40          0        0        0      30.08     9.61
   3/17/2017 08:00      19    59   67.16          0        0        0      30.08     9.42
   3/17/2017 07:00      20    57    3.73          0        0        0      30.08     9.40
   3/17/2017 06:00      19    68    0.04          0        0        0      30.08     9.41
   3/17/2017 05:00      18    78    0.03          0        0        0      30.09     9.42
   3/17/2017 04:00      18    83    0.04          0        0        0      30.08     9.42
   3/17/2017 03:00      20    82    0.04          0        0        0      30.08     9.44
   3/17/2017 02:00      20    77    0.05          0        0        0      30.07     9.46
   3/17/2017 01:00      20    78    0.04          0        0        0      30.08     9.48
   3/16/2017 24:00      21    81    0.03          0        0        0      30.08     9.50
   3/16/2017 23:00      21    75    0.03          0        0        0      30.07     9.53
   3/16/2017 22:00      21    77    0.03          0        0        0      30.04     9.56
   3/16/2017 21:00      22    79    0.03          0        0        0      30.03     9.59
   3/16/2017 20:00      22    79    0.06          0        0        0      30.02     9.63
   3/16/2017 19:00      22    81    8.25          0        0        0      30.00     9.62
   3/16/2017 18:00      23    87   55.86          0        0        0      29.98     9.81
   3/16/2017 17:00      22    89  117.90          0      331        0      29.96    10.61
   3/16/2017 16:00      23    90  179.10          0        0        0      29.95    10.97
   3/16/2017 15:00      24    90  230.40          0        0        0      29.93    11.06
   3/16/2017 14:00      23    91  228.30          0        0        0      29.92    10.95
   3/16/2017 13:00      24    92  246.40          0        0        0      29.91    10.37
   3/16/2017 12:00      24    92  234.50          0        0        0      29.90     9.76
   3/16/2017 11:00      25    92  173.10          0        0        0      29.89     9.68
   3/16/2017 10:00      26    94  137.30          0        0        0      29.87     9.60
   3/16/2017 09:00      27    94   74.60          0        0        0      29.84     9.46
   3/16/2017 08:00      27    95   21.03          0      312       12      29.81     9.41
   3/16/2017 07:00      29    96    0.89          0      315        0      29.78     9.41
   3/16/2017 06:00      30    96    0.03          0      283        0      29.78     9.42
   3/16/2017 05:00      30    98    0.03          0        0        0      29.79     9.43
   3/16/2017 04:00      31    98    0.06          0        0        0      29.79     9.45
   3/16/2017 03:00      31    98    0.02          0        0        0      29.80     9.47
   3/16/2017 02:00      31    98    0.04          0        0        0      29.81     9.49
   3/16/2017 01:00      31    93    0.03          8      289       21      29.80     9.51
   3/15/2017 24:00      32    93    0.03         14      290       27      29.81     9.53
   3/15/2017 23:00      32    96    0.03         11      290       27      29.81     9.55
   3/15/2017 22:00      32    94    0.02         13      282       26      29.81     9.57
   3/15/2017 21:00      33    97    0.01          9      284       18      29.82     9.59
   3/15/2017 20:00      33    97    0.04          9      292       19      29.83     9.61
   3/15/2017 19:00      34    96    3.66         10      247       24      29.84     9.63
   3/15/2017 18:00      34    94   38.17          9      268       19      29.84     9.68
   3/15/2017 17:00      34    93   89.80         16      293       32      29.84    10.45
   3/15/2017 16:00      34    92  113.00         14      288       28      29.85    10.79
   3/15/2017 15:00      33    92  216.90         19      291       34      29.86    11.07


CLICK HERE TO VIEW GRAPH